Terminal Aerodrome Forecast
Issued by NWS Melbourne, FL

Home | Current Version | Previous Version | Text Only | Print | Product List | Glossary On
Versions: 1 2 3 4 5 6 7 8 9 10 11 12 13
000
FTUS42 KMLB 051133
TAFVRB
TAF
KVRB 051133Z 0512/0612 08013G21KT P6SM VCSH FEW025 BKN060 OVC090
     FM051400 08016G23KT P6SM VCSH SCT025 BKN040 BKN250
     FM060000 07012KT P6SM VCSH SCT040 BKN250=

USA.gov is the U.S. government's official web portal to all federal, state and local government web resources and services.